createdAt,value
2022-10-15T00:01:14.374Z,18.00
2022-10-15T00:06:51.790Z,17.90
2022-10-15T00:09:37.336Z,17.90
2022-10-15T00:12:23.009Z,17.80
2022-10-15T00:15:09.838Z,17.70
2022-10-15T00:17:55.478Z,17.70
2022-10-15T00:20:42.209Z,17.70
2022-10-15T00:23:28.049Z,17.70
2022-10-15T00:26:17.446Z,17.70
2022-10-15T00:29:04.542Z,17.60
2022-10-15T00:31:50.099Z,17.50
2022-10-15T00:34:35.781Z,17.50
2022-10-15T00:37:21.867Z,17.40
2022-10-15T00:40:09.657Z,17.40
2022-10-15T00:42:55.175Z,17.50
2022-10-15T00:45:40.745Z,17.50
2022-10-15T00:48:26.517Z,17.50
2022-10-15T00:51:12.437Z,17.70
2022-10-15T00:53:58.673Z,17.60
2022-10-15T00:56:45.879Z,17.40
2022-10-15T00:59:33.252Z,17.50
2022-10-15T01:02:20.615Z,17.60
2022-10-15T01:05:07.874Z,17.60
2022-10-15T01:07:53.374Z,17.70
2022-10-15T01:11:08.032Z,17.30
2022-10-15T01:14:08.691Z,17.20
2022-10-15T01:17:33.935Z,17.30
2022-10-15T01:20:53.078Z,17.30
2022-10-15T01:23:56.919Z,17.20
2022-10-15T01:27:09.370Z,17.20
2022-10-15T01:30:20.946Z,17.40
2022-10-15T01:33:22.791Z,17.20
2022-10-15T01:36:38.615Z,16.90
2022-10-15T01:39:32.949Z,16.80
2022-10-15T01:42:38.433Z,17.10
2022-10-15T01:45:48.642Z,17.50
2022-10-15T01:48:58.088Z,17.40
2022-10-15T01:51:44.463Z,17.50
2022-10-15T01:54:31.890Z,17.70
2022-10-15T01:57:19.727Z,17.60
2022-10-15T02:00:06.365Z,17.50
2022-10-15T02:03:02.039Z,17.50
2022-10-15T02:06:10.689Z,17.30
2022-10-15T02:09:24.993Z,17.30
2022-10-15T02:12:24.749Z,17.20
2022-10-15T02:15:23.010Z,17.10
2022-10-15T02:18:45.118Z,17.00
2022-10-15T02:21:51.096Z,16.80
2022-10-15T02:24:45.765Z,16.60
2022-10-15T02:27:34.050Z,16.60
2022-10-15T02:30:21.043Z,16.50
2022-10-15T02:33:07.672Z,16.40
2022-10-15T02:35:54.861Z,16.30
2022-10-15T02:38:44.679Z,16.30
2022-10-15T02:41:30.294Z,16.20
2022-10-15T02:44:15.934Z,16.20
2022-10-15T02:47:02.626Z,16.20
2022-10-15T02:49:48.350Z,16.30
2022-10-15T02:52:34.299Z,16.30
2022-10-15T02:55:19.878Z,16.50
2022-10-15T02:58:05.920Z,16.60
2022-10-15T03:00:51.924Z,16.40
2022-10-15T03:03:37.795Z,16.30
2022-10-15T03:06:23.821Z,16.40
2022-10-15T03:09:09.680Z,16.50
2022-10-15T03:11:56.168Z,16.60
2022-10-15T03:14:42.177Z,16.60
2022-10-15T03:17:27.846Z,16.80
2022-10-15T03:20:13.452Z,16.80
2022-10-15T03:22:58.943Z,16.80
2022-10-15T03:25:44.936Z,16.70
2022-10-15T03:28:37.131Z,16.60
2022-10-15T03:31:22.513Z,16.50
2022-10-15T03:34:09.832Z,16.50
2022-10-15T03:36:55.829Z,16.20
2022-10-15T03:39:41.328Z,16.20
2022-10-15T03:42:27.368Z,16.10
2022-10-15T03:45:12.826Z,16.20
2022-10-15T03:47:58.305Z,16.10
2022-10-15T03:50:48.586Z,16.10
2022-10-15T03:53:34.786Z,16.10
2022-10-15T03:56:20.615Z,16.10
2022-10-15T03:59:06.453Z,16.20
2022-10-15T04:01:52.491Z,16.00
2022-10-15T04:04:38.093Z,15.60
2022-10-15T04:07:24.380Z,15.70
2022-10-15T04:10:10.941Z,15.70
2022-10-15T04:12:58.958Z,15.80
2022-10-15T04:15:45.541Z,15.90
2022-10-15T04:18:33.111Z,15.90
2022-10-15T04:21:19.099Z,15.90
2022-10-15T04:24:10.151Z,16.00
2022-10-15T04:26:59.292Z,16.10
2022-10-15T04:29:44.770Z,16.10
2022-10-15T04:32:33.732Z,16.10
2022-10-15T04:35:19.951Z,16.00
2022-10-15T04:38:11.747Z,15.90
2022-10-15T04:41:19.773Z,15.80
2022-10-15T04:44:12.907Z,15.80
2022-10-15T04:46:59.256Z,15.90
2022-10-15T04:50:05.008Z,15.90
2022-10-15T04:53:10.514Z,15.90
2022-10-15T04:56:10.333Z,15.90
2022-10-15T04:58:56.232Z,15.80
2022-10-15T05:01:44.356Z,15.90
2022-10-15T05:04:30.099Z,15.90
2022-10-15T05:07:15.990Z,15.90
2022-10-15T05:10:01.963Z,15.90
2022-10-15T05:12:50.324Z,15.90
2022-10-15T05:15:46.448Z,16.00
2022-10-15T05:18:32.154Z,16.10
2022-10-15T05:21:19.904Z,16.10
2022-10-15T05:24:10.062Z,15.80
2022-10-15T05:27:18.712Z,15.70
2022-10-15T05:30:05.292Z,15.50
2022-10-15T05:32:59.609Z,15.50
2022-10-15T05:35:45.157Z,15.30
2022-10-15T05:38:30.639Z,15.30
2022-10-15T05:41:17.151Z,15.60
2022-10-15T05:44:03.177Z,15.60
2022-10-15T05:46:49.190Z,15.80
2022-10-15T05:49:40.759Z,15.70
2022-10-15T05:52:31.690Z,16.00
2022-10-15T05:55:37.938Z,16.30
2022-10-15T05:58:23.618Z,16.40
2022-10-15T06:01:11.393Z,16.10
2022-10-15T06:03:56.982Z,15.90
2022-10-15T06:06:42.533Z,16.10
2022-10-15T06:09:28.743Z,16.30
2022-10-15T06:12:14.461Z,16.60
2022-10-15T06:15:00.027Z,16.80
2022-10-15T06:17:45.798Z,16.90
2022-10-15T06:20:31.728Z,17.00
2022-10-15T06:23:17.318Z,17.10
2022-10-15T06:26:08.170Z,17.20
2022-10-15T06:28:53.729Z,17.10
2022-10-15T06:31:39.039Z,17.10
2022-10-15T06:34:24.381Z,17.10
2022-10-15T06:37:10.196Z,17.10
2022-10-15T06:39:56.013Z,17.20
2022-10-15T06:42:42.110Z,17.20
2022-10-15T06:45:27.930Z,17.30
2022-10-15T06:48:13.490Z,17.30
2022-10-15T06:51:00.912Z,17.40
2022-10-15T06:53:46.410Z,17.30
2022-10-15T06:56:31.707Z,17.40
2022-10-15T06:59:17.404Z,17.50
2022-10-15T07:02:03.180Z,17.60
2022-10-15T07:04:49.046Z,17.40
2022-10-15T07:07:39.270Z,17.30
2022-10-15T07:10:26.693Z,17.70
2022-10-15T07:13:12.329Z,18.10
2022-10-15T07:15:57.867Z,18.40
2022-10-15T07:18:43.203Z,18.60
2022-10-15T07:21:28.795Z,18.60
2022-10-15T07:24:14.479Z,18.50
2022-10-15T07:27:02.704Z,18.20
2022-10-15T07:29:53.858Z,17.80
2022-10-15T07:32:39.694Z,19.20
2022-10-15T07:35:26.812Z,19.50
2022-10-15T07:38:12.675Z,20.00
2022-10-15T07:41:00.182Z,21.30
2022-10-15T07:43:46.273Z,22.50
2022-10-15T07:46:32.087Z,23.50
2022-10-15T07:49:17.701Z,24.50
2022-10-15T07:52:04.229Z,24.10
2022-10-15T07:54:49.802Z,24.70
2022-10-15T07:57:37.944Z,25.90
2022-10-15T08:00:23.833Z,26.60
2022-10-15T08:03:09.793Z,26.90
2022-10-15T08:05:55.990Z,25.50
2022-10-15T08:08:43.878Z,23.70
2022-10-15T08:11:29.695Z,24.00
2022-10-15T08:14:15.447Z,25.80
2022-10-15T08:17:03.012Z,26.40
2022-10-15T08:19:48.858Z,25.90
2022-10-15T08:22:34.972Z,27.40
2022-10-15T08:25:20.775Z,26.60
2022-10-15T08:28:06.640Z,26.30
2022-10-15T08:30:52.003Z,27.00
2022-10-15T08:33:38.398Z,25.00
2022-10-15T08:36:24.191Z,24.20
2022-10-15T08:39:10.316Z,26.20
2022-10-15T08:42:03.741Z,28.00
2022-10-15T08:44:58.847Z,28.50
2022-10-15T08:47:54.221Z,29.00
2022-10-15T08:50:50.443Z,28.00
2022-10-15T08:53:45.776Z,27.60
2022-10-15T08:56:34.787Z,26.60
2022-10-15T08:59:35.448Z,26.70
2022-10-15T09:02:29.019Z,27.20
2022-10-15T09:05:27.183Z,28.70
2022-10-15T09:08:41.929Z,28.20
2022-10-15T09:11:54.492Z,26.30
2022-10-15T09:14:46.414Z,24.30
2022-10-15T09:17:33.986Z,22.20
2022-10-15T09:20:37.076Z,22.40
2022-10-15T09:23:27.014Z,22.60
2022-10-15T09:26:15.684Z,22.50
2022-10-15T09:29:43.962Z,21.90
2022-10-15T09:32:37.349Z,21.90
2022-10-15T09:35:24.848Z,22.00
2022-10-15T09:38:19.874Z,21.80
2022-10-15T09:41:20.550Z,21.80
2022-10-15T09:44:14.042Z,22.30
2022-10-15T09:47:36.497Z,22.10
2022-10-15T09:50:22.233Z,22.30
2022-10-15T09:53:23.262Z,22.60
2022-10-15T09:56:24.539Z,22.50
2022-10-15T09:59:21.823Z,22.50
2022-10-15T10:02:13.433Z,22.80
2022-10-15T10:05:31.295Z,22.80
2022-10-15T10:08:25.632Z,22.60
2022-10-15T10:11:12.903Z,22.10
2022-10-15T10:14:01.104Z,22.10
2022-10-15T10:17:19.045Z,22.40
2022-10-15T10:20:15.963Z,22.30
2022-10-15T10:23:20.490Z,22.80
2022-10-15T10:26:10.389Z,22.40
2022-10-15T10:29:04.670Z,22.50
2022-10-15T10:31:56.340Z,22.50
2022-10-15T10:34:50.004Z,22.50
2022-10-15T10:37:44.587Z,23.10
2022-10-15T10:40:36.001Z,23.70
2022-10-15T10:43:29.450Z,23.80
2022-10-15T10:46:15.294Z,23.20
2022-10-15T10:49:05.720Z,23.60
2022-10-15T10:51:51.472Z,23.70
2022-10-15T10:54:37.214Z,23.60
2022-10-15T10:57:32.118Z,23.20
2022-10-15T11:00:23.043Z,23.40
2022-10-15T11:03:20.802Z,23.50
2022-10-15T11:06:41.910Z,23.60
2022-10-15T11:09:56.142Z,23.30
2022-10-15T11:13:00.945Z,23.80
2022-10-15T11:15:46.730Z,24.40
2022-10-15T11:18:44.181Z,24.20
2022-10-15T11:21:54.017Z,24.10
2022-10-15T11:25:05.929Z,23.10
2022-10-15T11:28:10.336Z,23.70
2022-10-15T11:31:20.759Z,23.80
2022-10-15T11:34:37.367Z,23.80
2022-10-15T11:37:42.056Z,24.00
2022-10-15T11:40:36.401Z,24.10
2022-10-15T11:43:54.557Z,24.00
2022-10-15T11:46:50.429Z,23.70
2022-10-15T11:49:55.865Z,23.30
2022-10-15T11:53:20.080Z,22.70
2022-10-15T11:56:15.007Z,23.40
2022-10-15T11:59:10.027Z,23.20
2022-10-15T12:02:01.245Z,22.50
2022-10-15T12:04:53.844Z,22.10
2022-10-15T12:07:50.591Z,22.40
2022-10-15T12:10:52.954Z,22.50
2022-10-15T12:13:49.569Z,22.70
2022-10-15T12:16:59.089Z,22.70
2022-10-15T12:19:59.116Z,22.60
2022-10-15T12:22:47.981Z,22.50
2022-10-15T12:25:36.376Z,22.30
2022-10-15T12:28:25.893Z,22.70
2022-10-15T12:31:11.701Z,22.40
2022-10-15T12:33:58.246Z,22.10
2022-10-15T12:36:44.050Z,22.50
2022-10-15T12:42:39.411Z,22.00
2022-10-15T12:45:59.375Z,22.80
2022-10-15T12:48:48.048Z,22.70
2022-10-15T12:51:35.024Z,22.10
2022-10-15T12:54:40.194Z,22.40
2022-10-15T12:57:33.846Z,22.80
2022-10-15T13:00:39.694Z,23.00
2022-10-15T13:03:35.430Z,23.10
2022-10-15T13:06:20.934Z,23.20
2022-10-15T13:09:12.710Z,23.20
2022-10-15T13:12:00.890Z,23.20
2022-10-15T13:14:57.663Z,23.30
2022-10-15T13:17:43.723Z,23.30
2022-10-15T13:20:37.955Z,23.40
2022-10-15T13:23:32.841Z,22.80
2022-10-15T13:26:27.178Z,22.80
2022-10-15T13:29:19.228Z,23.20
2022-10-15T13:32:14.087Z,23.30
2022-10-15T13:35:02.519Z,23.80
2022-10-15T13:37:48.673Z,23.80
2022-10-15T13:40:34.753Z,24.00
2022-10-15T13:43:25.566Z,24.10
2022-10-15T13:46:15.470Z,23.90
2022-10-15T13:49:03.428Z,24.00
2022-10-15T13:51:52.246Z,24.00
2022-10-15T13:54:39.426Z,23.30
2022-10-15T13:57:25.513Z,23.20
2022-10-15T14:00:30.225Z,22.70
2022-10-15T14:03:19.630Z,23.00
2022-10-15T14:06:39.569Z,23.20
2022-10-15T14:09:36.988Z,23.80
2022-10-15T14:12:23.635Z,24.00
2022-10-15T14:15:58.622Z,24.00
2022-10-15T14:18:49.326Z,23.50
2022-10-15T14:21:36.744Z,22.80
2022-10-15T14:24:30.951Z,22.90
2022-10-15T14:27:27.010Z,23.30
2022-10-15T14:30:33.060Z,23.60
2022-10-15T14:33:30.973Z,24.00
2022-10-15T14:36:20.043Z,23.90
2022-10-15T14:39:28.508Z,23.80
2022-10-15T14:42:28.343Z,23.60
2022-10-15T14:45:28.501Z,23.10
2022-10-15T14:48:38.131Z,23.70
2022-10-15T14:51:25.631Z,24.00
2022-10-15T14:54:21.496Z,23.90
2022-10-15T14:57:39.009Z,23.80
2022-10-15T15:00:33.123Z,23.60
2022-10-15T15:03:21.146Z,23.80
2022-10-15T15:06:07.352Z,23.90
2022-10-15T15:08:53.404Z,23.80
2022-10-15T15:11:39.331Z,22.80
2022-10-15T15:14:25.948Z,22.60
2022-10-15T15:17:19.487Z,23.00
2022-10-15T15:20:07.210Z,23.40
2022-10-15T15:22:55.215Z,23.50
2022-10-15T15:25:40.912Z,23.40
2022-10-15T15:28:29.332Z,23.40
2022-10-15T15:31:17.716Z,23.50
2022-10-15T15:34:03.273Z,23.50
2022-10-15T15:36:49.234Z,23.50
2022-10-15T15:39:35.183Z,23.40
2022-10-15T15:42:23.195Z,23.50
2022-10-15T15:45:29.566Z,23.30
2022-10-15T15:48:15.067Z,23.30
2022-10-15T15:51:28.830Z,23.10
2022-10-15T15:54:14.721Z,22.90
2022-10-15T15:57:00.374Z,22.60
2022-10-15T15:59:45.971Z,22.50
2022-10-15T16:02:31.565Z,22.40
2022-10-15T16:05:17.593Z,22.20
2022-10-15T16:08:03.029Z,22.10
2022-10-15T16:10:48.685Z,22.20
2022-10-15T16:13:35.318Z,22.40
2022-10-15T16:16:21.233Z,22.70
2022-10-15T16:19:07.413Z,22.80
2022-10-15T16:21:52.779Z,22.50
2022-10-15T16:24:38.650Z,22.40
2022-10-15T16:27:24.647Z,22.70
2022-10-15T16:30:10.846Z,22.90
2022-10-15T16:32:56.625Z,22.80
2022-10-15T16:35:41.917Z,22.80
2022-10-15T16:38:27.600Z,22.80
2022-10-15T16:41:14.982Z,22.90
2022-10-15T16:44:00.515Z,22.80
2022-10-15T16:46:46.401Z,22.90
2022-10-15T16:49:32.121Z,22.70
2022-10-15T16:52:18.091Z,22.60
2022-10-15T16:55:03.859Z,22.60
2022-10-15T16:57:49.281Z,22.70
2022-10-15T17:00:35.008Z,22.80
2022-10-15T17:03:20.416Z,22.80
2022-10-15T17:06:08.700Z,22.80
2022-10-15T17:08:57.455Z,22.90
2022-10-15T17:11:46.965Z,22.80
2022-10-15T17:14:36.353Z,22.80
2022-10-15T17:17:21.906Z,22.90
2022-10-15T17:20:09.168Z,22.90
2022-10-15T17:22:57.055Z,22.90
2022-10-15T17:25:42.959Z,22.80
2022-10-15T17:28:28.992Z,22.80
2022-10-15T17:31:18.993Z,22.80
2022-10-15T17:34:08.120Z,23.00
2022-10-15T17:36:55.249Z,23.00
2022-10-15T17:39:41.175Z,23.00
2022-10-15T17:42:27.355Z,23.20
2022-10-15T17:45:14.946Z,23.30
2022-10-15T17:48:00.890Z,23.20
2022-10-15T17:50:46.488Z,23.00
2022-10-15T17:53:32.947Z,22.80
2022-10-15T17:56:24.800Z,22.50
2022-10-15T17:59:13.474Z,22.60
2022-10-15T18:02:00.759Z,22.60
2022-10-15T18:04:48.294Z,22.90
2022-10-15T18:07:34.788Z,23.00
2022-10-15T18:10:20.369Z,22.80
2022-10-15T18:13:06.393Z,22.70
2022-10-15T18:15:56.524Z,22.50
2022-10-15T18:18:42.598Z,22.70
2022-10-15T18:21:28.506Z,22.70
2022-10-15T18:24:14.403Z,22.70
2022-10-15T18:27:00.106Z,22.50
2022-10-15T18:29:45.810Z,21.30
2022-10-15T18:32:31.351Z,22.60
2022-10-15T18:35:16.822Z,22.70
2022-10-15T18:38:02.687Z,22.60
2022-10-15T18:40:48.361Z,22.40
2022-10-15T18:43:34.154Z,22.50
2022-10-15T18:46:19.838Z,22.70
2022-10-15T18:49:06.051Z,22.70
2022-10-15T18:51:52.970Z,22.60
2022-10-15T18:54:39.251Z,22.50
2022-10-15T18:57:24.997Z,22.50
2022-10-15T19:00:12.034Z,22.40
2022-10-15T19:02:58.109Z,22.30
2022-10-15T19:05:43.713Z,22.30
2022-10-15T19:08:30.974Z,22.30
2022-10-15T19:11:17.884Z,22.40
2022-10-15T19:14:04.016Z,22.80
2022-10-15T19:16:50.082Z,22.30
2022-10-15T19:19:36.330Z,22.30
2022-10-15T19:22:21.966Z,22.20
2022-10-15T19:25:08.209Z,22.10
2022-10-15T19:27:53.949Z,22.00
2022-10-15T19:30:39.576Z,22.00
2022-10-15T19:33:26.762Z,22.00
2022-10-15T19:36:20.075Z,21.90
2022-10-15T19:39:08.689Z,21.90
2022-10-15T19:41:54.414Z,22.00
2022-10-15T19:44:40.092Z,22.00
2022-10-15T19:47:25.794Z,22.10
2022-10-15T19:50:11.615Z,22.10
2022-10-15T19:52:57.232Z,22.10
2022-10-15T19:55:44.045Z,22.20
2022-10-15T19:58:30.773Z,22.20
2022-10-15T20:01:16.384Z,22.20
2022-10-15T20:04:06.202Z,22.10
2022-10-15T20:06:52.905Z,22.20
2022-10-15T20:09:38.622Z,22.20
2022-10-15T20:12:24.048Z,21.90
2022-10-15T20:15:10.002Z,21.90
2022-10-15T20:17:55.531Z,22.10
2022-10-15T20:20:43.777Z,22.10
2022-10-15T20:23:29.646Z,22.10
2022-10-15T20:26:16.748Z,22.00
2022-10-15T20:29:03.432Z,21.80
2022-10-15T20:31:51.279Z,21.80
2022-10-15T20:34:37.129Z,22.10
2022-10-15T20:37:22.583Z,22.10
2022-10-15T20:40:08.858Z,22.00
2022-10-15T20:42:54.406Z,22.00
2022-10-15T20:45:45.530Z,22.10
2022-10-15T20:48:32.821Z,22.00
2022-10-15T20:51:21.392Z,21.80
2022-10-15T20:54:10.459Z,21.70
2022-10-15T20:56:56.393Z,21.70
2022-10-15T20:59:41.909Z,21.60
2022-10-15T21:02:27.741Z,21.90
2022-10-15T21:05:13.502Z,22.00
2022-10-15T21:08:00.443Z,21.90
2022-10-15T21:10:45.918Z,21.90
2022-10-15T21:13:31.605Z,22.00
2022-10-15T21:16:17.486Z,22.00
2022-10-15T21:19:03.092Z,21.90
2022-10-15T21:21:48.740Z,21.90
2022-10-15T21:24:35.148Z,21.60
2022-10-15T21:27:20.622Z,21.40
2022-10-15T21:30:07.104Z,21.20
2022-10-15T21:32:53.047Z,21.10
2022-10-15T21:35:38.330Z,21.00
2022-10-15T21:38:23.869Z,20.80
2022-10-15T21:41:09.471Z,20.30
2022-10-15T21:43:54.994Z,20.40
2022-10-15T21:46:41.458Z,20.60
2022-10-15T21:49:27.010Z,20.90
2022-10-15T21:52:12.630Z,21.30
2022-10-15T21:54:58.053Z,20.90
2022-10-15T21:57:43.627Z,20.90
2022-10-15T22:00:29.071Z,20.60
2022-10-15T22:03:14.949Z,20.60
2022-10-15T22:06:00.529Z,20.50
2022-10-15T22:08:47.131Z,20.60
2022-10-15T22:11:38.655Z,20.60
2022-10-15T22:14:24.390Z,20.70
2022-10-15T22:17:10.186Z,21.00
2022-10-15T22:19:55.622Z,21.40
2022-10-15T22:22:41.398Z,21.60
2022-10-15T22:25:26.827Z,21.70
2022-10-15T22:28:12.988Z,21.60
2022-10-15T22:31:06.326Z,21.60
2022-10-15T22:33:52.583Z,21.60
2022-10-15T22:36:38.347Z,21.40
2022-10-15T22:39:23.890Z,21.50
2022-10-15T22:42:09.563Z,21.60
2022-10-15T22:44:54.940Z,21.70
2022-10-15T22:47:40.935Z,21.70
2022-10-15T22:50:26.911Z,21.60
2022-10-15T22:53:12.711Z,21.40
2022-10-15T22:56:04.327Z,21.60
2022-10-15T22:58:49.910Z,21.70
2022-10-15T23:01:36.274Z,21.70
2022-10-15T23:04:21.882Z,21.70
2022-10-15T23:07:08.070Z,21.80
2022-10-15T23:09:53.565Z,21.70
2022-10-15T23:12:39.466Z,21.60
2022-10-15T23:15:25.214Z,21.30
2022-10-15T23:18:10.944Z,21.50
2022-10-15T23:20:56.565Z,21.50
2022-10-15T23:23:43.879Z,21.50
2022-10-15T23:26:30.445Z,21.60
2022-10-15T23:29:18.957Z,21.50
2022-10-15T23:32:04.496Z,21.50
2022-10-15T23:34:50.131Z,21.40
2022-10-15T23:37:36.154Z,21.30
2022-10-15T23:40:21.912Z,21.30
2022-10-15T23:43:07.569Z,21.30
2022-10-15T23:45:52.981Z,21.40
2022-10-15T23:48:38.761Z,21.30
2022-10-15T23:51:29.809Z,21.30
2022-10-15T23:54:17.897Z,21.40
2022-10-15T23:57:03.843Z,21.40
2022-10-15T23:59:49.343Z,21.40
